Terminal Aerodrome Forecast
Issued by NWS

Home | Current Version | Previous Version | Text Only | Print | Product List | Glossary On
Versions: 1 2 3 4 5 6 7 8 9 10 11 12 13 14 15 16 17 18 19 20 21 22 23 24
000
FTUS43 KAPX 041737
TAFTVC
TAF
KTVC 041737Z 0418/0518 29012KT P6SM -SHSN SCT026 BKN035
      TEMPO 0418/0422 3SM -SHSN BKN029
     FM050100 31008KT P6SM BKN035
     FM050800 VRB03KT P6SM SCT035
     FM051600 28007KT P6SM BKN028=

USA.gov is the U.S. government's official web portal to all federal, state and local government web resources and services.